Time;durP1;ratioP1;P1;durP2;ratioP2;P2;SDS_P1;SDS_P2;PMS_P1;PMS_P2;Temp;Humidity;BMP_temperature;BMP_pressure;BME280_temperature;BME280_humidity;BME280_pressure;Samples;Min_cycle;Max_cycle;Signal;HPM_P1;HPM_P2
2021/12/10 00:00:57;;;;;;;;;;;1.70;99.90;;;0.71;100.00;94485.81;10534212;28;1837;-72
2021/12/10 00:06:20;;;;;;;;;;;1.70;99.90;;;0.68;100.00;94477.56;10528382;28;1968;-71
2021/12/10 00:11:43;;;;;;;;;;;1.70;99.90;;;0.67;100.00;94465.38;10529337;28;1888;-73
2021/12/10 00:17:06;;;;;;;;;;;1.70;99.90;;;0.67;100.00;94450.31;10527021;28;1827;-72
2021/12/10 00:22:36;;;;;;;;;;;1.80;99.90;;;0.72;100.00;94449.59;10532573;28;1940;-72
2021/12/10 00:27:59;;;;;;;;;;;1.80;99.90;;;0.71;100.00;94437.41;10539048;28;1969;-71
2021/12/10 00:33:24;;;;;;;;;;;1.80;99.90;;;0.71;100.00;94426.84;10549119;28;1927;-73
2021/12/10 00:38:47;;;;;;;;;;;1.70;99.90;;;0.76;100.00;94419.75;10545515;28;2088;-72
2021/12/10 00:44:10;;;;;;;;;;;1.80;99.90;;;0.78;100.00;94399.16;10540275;28;1905;-71
2021/12/10 00:49:33;;;;;;;;;;;1.80;99.90;;;0.75;100.00;94402.28;10545015;28;1995;-73
2021/12/10 00:54:57;;;;;;;;;;;1.80;99.90;;;0.76;99.54;94389.84;10530173;28;1887;-73
2021/12/10 01:00:20;;;;;;;;;;;1.80;99.90;;;0.70;99.72;94380.25;10538546;28;1824;-72
2021/12/10 01:05:43;;;;;;;;;;;1.80;99.90;;;0.70;97.96;94372.31;10550488;28;1787;-72
2021/12/10 01:11:06;;;;;;;;;;;1.80;99.90;;;0.70;98.51;94362.56;10571248;28;1919;-71
2021/12/10 01:27:47;;;;;;;;;;;1.70;99.90;;;0.60;98.95;94333.34;10525885;28;1972;-71
2021/12/10 01:33:11;;;;;;;;;;;1.70;99.90;;;0.63;99.34;94326.75;10539839;28;1813;-72
2021/12/10 01:38:34;;;;;;;;;;;1.70;99.90;;;0.59;98.55;94309.78;10548484;28;1735;-71
2021/12/10 01:44:02;;;;;;;;;;;1.70;99.90;;;0.47;97.76;94302.78;10550019;28;1782;-72
2021/12/10 01:49:25;;;;;;;;;;;1.60;99.90;;;0.35;98.73;94294.16;10552964;28;1961;-73
2021/12/10 01:54:48;;;;;;;;;;;1.60;99.90;;;0.23;99.18;94277.63;10535391;28;1759;-71
2021/12/10 02:00:11;;;;;;;;;;;1.50;99.90;;;0.09;99.01;94260.53;10547416;28;1751;-71
2021/12/10 02:05:35;;;;;;;;;;;1.30;99.90;;;-0.07;100.00;94260.31;10552220;28;1833;-73
2021/12/10 02:10:59;;;;;;;;;;;1.20;99.90;;;-0.13;100.00;94253.38;10546567;28;1906;-72
2021/12/10 02:16:22;;;;;;;;;;;1.00;99.90;;;-0.34;100.00;94230.41;10532904;28;1862;-71
2021/12/10 02:21:46;;;;;;;;;;;1.00;99.90;;;-0.42;100.00;94220.25;10543945;28;2030;-72
2021/12/10 02:27:09;;;;;;;;;;;0.90;99.90;;;-0.59;100.00;94201.78;10538424;28;1942;-72
2021/12/10 02:32:32;;;;;;;;;;;0.80;99.90;;;-0.69;100.00;94183.19;10535528;28;1850;-73
2021/12/10 02:37:55;;;;;;;;;;;0.60;99.90;;;-0.84;100.00;94178.47;10565089;22;1762;-72
2021/12/10 02:43:18;;;;;;;;;;;0.50;99.90;;;-0.85;100.00;94163.69;10555876;28;1844;-72
2021/12/10 02:48:41;;;;;;;;;;;0.50;99.90;;;-1.00;100.00;94148.44;10542039;28;1905;-72
2021/12/10 02:54:05;;;;;;;;;;;0.30;99.90;;;-1.02;100.00;94141.81;10512796;28;1814;-73
2021/12/10 02:59:28;;;;;;;;;;;0.30;99.90;;;-1.07;100.00;94124.09;10515415;28;1842;-73
2021/12/10 03:04:51;;;;;;;;;;;0.20;99.90;;;-1.19;100.00;94110.19;10517918;28;1843;-73
2021/12/10 03:10:16;;;;;;;;;;;0.10;99.90;;;-1.29;100.00;94116.09;10506443;28;1956;-73
2021/12/10 03:15:39;;;;;;;;;;;0.00;99.90;;;-1.27;100.00;94113.22;10507431;28;1806;-72
2021/12/10 03:21:03;;;;;;;;;;;0.10;99.90;;;-1.30;100.00;94103.16;10526686;28;1909;-72
2021/12/10 03:26:26;;;;;;;;;;;0.00;99.90;;;-1.47;100.00;94088.13;10507175;28;1796;-73
2021/12/10 03:31:50;;;;;;;;;;;-0.20;99.90;;;-1.45;100.00;94095.81;10512525;28;1737;-72
2021/12/10 03:37:17;;;;;;;;;;;-0.20;99.90;;;-1.55;100.00;94075.38;10512424;28;1837;-73
2021/12/10 03:42:40;;;;;;;;;;;-0.30;99.90;;;-1.70;100.00;94069.88;10517801;28;1800;-73
2021/12/10 03:48:03;;;;;;;;;;;-0.40;99.90;;;-1.81;100.00;94068.91;10525469;28;1909;-72
2021/12/10 03:53:27;;;;;;;;;;;-0.40;99.90;;;-1.72;100.00;94051.69;10513564;28;1812;-72
2021/12/10 03:58:50;;;;;;;;;;;-0.50;99.90;;;-1.76;100.00;94037.38;10515203;28;1989;-72
2021/12/10 04:04:14;;;;;;;;;;;-0.60;99.90;;;-1.87;100.00;94043.50;10514257;28;1951;-73
2021/12/10 04:09:37;;;;;;;;;;;-0.60;99.90;;;-1.97;100.00;94035.47;10522338;28;1949;-73
2021/12/10 04:15:00;;;;;;;;;;;-0.70;99.90;;;-1.98;100.00;94018.03;10502761;28;1841;-75
2021/12/10 04:20:23;;;;;;;;;;;-0.70;99.90;;;-2.04;100.00;94004.00;10517690;28;1900;-72
2021/12/10 04:25:47;;;;;;;;;;;-0.80;99.90;;;-2.14;100.00;94003.03;10520945;28;2074;-72
2021/12/10 04:31:10;;;;;;;;;;;-0.80;99.90;;;-2.17;100.00;93996.41;10535901;28;1967;-73
2021/12/10 04:36:33;;;;;;;;;;;-0.80;99.90;;;-2.05;100.00;93983.97;10525725;28;2052;-72
2021/12/10 04:41:56;;;;;;;;;;;-0.80;99.90;;;-2.02;100.00;93983.50;10517906;28;2145;-73
2021/12/10 04:47:20;;;;;;;;;;;-0.90;99.90;;;-2.18;100.00;93969.28;10523351;28;1981;-73
2021/12/10 04:52:43;;;;;;;;;;;-0.90;99.90;;;-2.28;100.00;93969.13;10521555;28;1825;-72
2021/12/10 04:58:07;;;;;;;;;;;-0.80;99.90;;;-2.38;100.00;93971.59;10515929;28;1824;-73
2021/12/10 05:03:30;;;;;;;;;;;-1.00;99.90;;;-2.19;100.00;93959.00;10531739;28;1901;-72
2021/12/10 05:08:54;;;;;;;;;;;-1.00;99.90;;;-2.25;100.00;93934.44;10506980;28;1965;-72
2021/12/10 05:14:17;;;;;;;;;;;-1.10;99.90;;;-2.39;100.00;93896.31;10522731;28;1805;-72
2021/12/10 05:19:41;;;;;;;;;;;-1.10;99.90;;;-2.51;100.00;93916.63;10508946;28;1937;-73
2021/12/10 05:25:04;;;;;;;;;;;-1.20;99.90;;;-2.50;100.00;93915.59;10501480;28;1770;-72
2021/12/10 05:30:28;;;;;;;;;;;-1.20;99.90;;;-2.45;100.00;93900.69;10521998;28;1910;-72
2021/12/10 05:35:51;;;;;;;;;;;-1.20;99.90;;;-2.52;100.00;93907.94;10522786;28;2015;-72
2021/12/10 05:41:14;;;;;;;;;;;-1.30;99.90;;;-2.51;100.00;93898.22;10519671;28;1774;-72
2021/12/10 05:46:38;;;;;;;;;;;-1.30;99.90;;;-2.54;100.00;93893.44;10522045;28;1848;-73
2021/12/10 05:52:01;;;;;;;;;;;-1.30;99.90;;;-2.55;100.00;93881.31;10505807;28;2157;-73
2021/12/10 05:57:24;;;;;;;;;;;-1.30;99.90;;;-2.66;100.00;93874.31;10523963;28;1992;-72
2021/12/10 06:02:47;;;;;;;;;;;-1.40;99.90;;;-2.56;100.00;93875.25;10524840;28;1876;-74
2021/12/10 06:08:10;;;;;;;;;;;-1.30;99.90;;;-2.68;100.00;93868.47;10522401;28;1971;-72
2021/12/10 06:13:34;;;;;;;;;;;-1.40;99.90;;;-2.63;100.00;93855.41;10516179;28;2062;-73
2021/12/10 06:18:57;;;;;;;;;;;-1.40;99.90;;;-2.73;100.00;93843.69;10521025;28;1874;-72
2021/12/10 06:24:20;;;;;;;;;;;-1.50;99.90;;;-2.76;100.00;93823.13;10521308;28;1941;-74
2021/12/10 06:29:44;;;;;;;;;;;-1.50;99.90;;;-2.87;100.00;93817.94;10518034;28;1977;-73
2021/12/10 06:35:08;;;;;;;;;;;-1.50;99.90;;;-2.87;100.00;93810.84;10509123;28;1929;-73
2021/12/10 06:40:31;;;;;;;;;;;-1.50;99.90;;;-2.87;100.00;93797.69;10516214;28;2030;-73
2021/12/10 06:45:55;;;;;;;;;;;-1.60;99.90;;;-2.93;100.00;93782.88;10514280;28;1929;-73
2021/12/10 06:51:18;;;;;;;;;;;-1.60;99.90;;;-2.94;100.00;93773.38;10515646;28;2115;-73
2021/12/10 06:56:42;;;;;;;;;;;-1.70;99.90;;;-2.75;100.00;93777.38;10512411;28;1997;-73
2021/12/10 07:02:05;;;;;;;;;;;-1.70;99.90;;;-2.80;100.00;93769.44;10493979;28;1972;-72
2021/12/10 07:07:29;;;;;;;;;;;-1.50;99.90;;;-2.82;100.00;93762.81;10503255;28;2021;-74
2021/12/10 07:12:52;;;;;;;;;;;-1.60;99.90;;;-2.78;100.00;93756.81;10500785;28;2104;-73
2021/12/10 07:18:16;;;;;;;;;;;-1.70;99.90;;;-2.64;100.00;93754.66;10500306;28;1951;-74
2021/12/10 07:27:46;;;;;;;;;;;-1.50;99.90;;;-2.59;100.00;93732.91;10508775;27;69853;-72
2021/12/10 07:36:09;;;;;;;;;;;-1.50;99.90;;;-2.46;100.00;93740.44;10576502;27;1897;-71
2021/12/10 07:41:12;;;;;;;;;;;-1.40;99.90;;;-2.40;100.00;93742.13;10557599;28;1959;-72
2021/12/10 07:50:12;;;;;;;;;;;-1.30;99.90;;;-2.19;100.00;93722.09;10525697;27;2098;-73
2021/12/10 07:55:14;;;;;;;;;;;-1.20;99.90;;;-2.18;100.00;93703.44;10525025;28;1804;-73
2021/12/10 08:00:18;;;;;;;;;;;-1.10;99.90;;;-2.11;100.00;93702.44;10517174;28;1977;-74
2021/12/10 08:05:21;;;;;;;;;;;-1.10;99.90;;;-2.08;100.00;93701.97;10516065;28;1949;-73
2021/12/10 08:10:24;;;;;;;;;;;-1.00;99.90;;;-2.05;100.00;93686.47;10502443;28;1947;-72
2021/12/10 08:15:27;;;;;;;;;;;-1.00;99.90;;;-1.99;99.19;93685.47;10508291;28;1962;-72
2021/12/10 08:20:31;;;;;;;;;;;-0.90;99.90;;;-1.98;99.62;93675.75;10508290;28;1930;-78
2021/12/10 08:25:34;;;;;;;;;;;-0.90;99.90;;;-1.84;98.91;93674.34;10512733;28;1983;-74
2021/12/10 08:30:37;;;;;;;;;;;-0.90;99.90;;;-1.90;98.75;93675.31;10512339;28;1876;-74
2021/12/10 08:35:41;;;;;;;;;;;-0.70;99.90;;;-1.86;98.30;93668.50;10519726;28;1883;-73
2021/12/10 08:40:44;;;;;;;;;;;-0.70;99.90;;;-1.75;98.39;93657.03;10506324;28;1888;-71
2021/12/10 08:45:48;;;;;;;;;;;-0.70;99.90;;;-1.81;97.39;93652.75;10509662;28;2005;-73
2021/12/10 08:50:52;;;;;;;;;;;-0.70;99.90;;;-1.86;97.52;93657.97;10508566;28;1903;-72
2021/12/10 08:55:55;;;;;;;;;;;-0.70;99.90;;;-1.60;98.97;93663.47;10511622;28;1857;-74
2021/12/10 09:00:58;;;;;;;;;;;-0.70;99.90;;;-1.45;95.92;93653.09;10487793;28;2046;-72
2021/12/10 09:06:16;;;;;;;;;;;-0.50;99.90;;;-1.30;95.97;93649.78;10481881;28;1918;-72
2021/12/10 09:11:19;;;;;;;;;;;-0.30;99.90;;;-1.19;93.94;93635.63;10479767;28;1927;-73
2021/12/10 09:16:40;;;;;;;;;;;-0.20;99.90;;;-1.06;94.00;93626.50;10478181;28;2105;-71
2021/12/10 09:21:44;;;;;;;;;;;-0.10;99.90;;;-1.02;93.09;93609.09;10478147;28;1999;-72
2021/12/10 09:26:47;;;;;;;;;;;0.00;99.90;;;-1.05;91.88;93614.91;10482698;28;1952;-71
2021/12/10 09:31:50;;;;;;;;;;;0.10;99.90;;;-1.14;92.12;93594.28;10484870;28;1887;-71
2021/12/10 09:36:53;;;;;;;;;;;0.00;99.90;;;-1.21;91.77;93601.63;10491420;28;1817;-72
2021/12/10 09:41:56;;;;;;;;;;;-0.10;99.90;;;-1.10;90.48;93595.34;10486196;28;1867;-73
2021/12/10 09:46:58;;;;;;;;;;;-0.10;99.90;;;-0.97;90.50;93590.69;10473058;28;1959;-73
2021/12/10 09:52:02;;;;;;;;;;;0.10;99.90;;;-0.75;90.24;93588.69;10482093;28;1965;-72
2021/12/10 09:57:05;;;;;;;;;;;0.20;99.90;;;-0.56;89.78;93579.28;10477992;28;1907;-71
2021/12/10 10:02:08;;;;;;;;;;;0.30;99.90;;;-0.32;87.17;93562.97;10478150;28;1839;-72
2021/12/10 10:07:13;;;;;;;;;;;0.50;99.90;;;-0.32;85.33;93555.06;10486928;28;1934;-72
2021/12/10 10:12:15;;;;;;;;;;;0.70;99.90;;;-0.14;83.23;93540.59;10467475;22;3492;-71
2021/12/10 10:17:18;;;;;;;;;;;0.80;99.90;;;0.13;83.84;93543.03;10399982;28;2076;-73
2021/12/10 10:22:21;;;;;;;;;;;1.00;99.90;;;0.36;81.87;93508.13;10395960;28;2342;-73
2021/12/10 10:27:25;;;;;;;;;;;1.20;99.90;;;0.31;82.06;93492.28;10382294;28;2332;-72
2021/12/10 10:32:29;;;;;;;;;;;1.20;99.90;;;0.33;81.89;93458.47;10383591;28;1921;-72
2021/12/10 10:37:33;;;;;;;;;;;1.30;99.90;;;0.25;81.83;93459.81;10390960;28;2439;-73
2021/12/10 10:42:36;;;;;;;;;;;1.30;99.90;;;0.49;81.59;93444.16;10388988;28;2386;-73
2021/12/10 10:47:38;;;;;;;;;;;1.40;99.90;;;0.48;81.05;93432.00;10389342;28;2136;-71
2021/12/10 10:52:45;;;;;;;;;;;1.40;99.90;;;0.73;80.82;93459.44;10391224;28;2363;-72
2021/12/10 10:57:48;;;;;;;;;;;1.60;99.90;;;0.98;79.87;93462.00;10393512;28;2119;-71
2021/12/10 11:02:52;;;;;;;;;;;1.80;99.90;;;0.93;78.95;93464.66;10398692;28;1996;-71
2021/12/10 11:07:56;;;;;;;;;;;2.00;99.90;;;1.31;79.79;93465.03;10401638;28;1985;-72
2021/12/10 11:12:58;;;;;;;;;;;2.00;99.90;;;1.39;78.11;93451.22;10393992;28;2254;-72
2021/12/10 11:18:01;;;;;;;;;;;2.30;99.90;;;1.72;77.13;93448.91;10389145;28;2420;-73
2021/12/10 11:23:04;;;;;;;;;;;2.50;99.90;;;1.48;77.34;93432.94;10394262;28;2349;-72
2021/12/10 11:28:07;;;;;;;;;;;2.50;99.90;;;1.37;76.97;93424.25;10393307;28;2273;-71
2021/12/10 11:33:10;;;;;;;;;;;2.40;99.90;;;1.44;76.39;93419.44;10392943;28;1973;-73
2021/12/10 11:38:14;;;;;;;;;;;2.40;99.90;;;1.59;75.87;93414.06;10392880;28;2202;-72
2021/12/10 11:43:21;;;;;;;;;;;2.50;99.90;;;1.79;74.61;93409.69;10391783;28;2374;-72
2021/12/10 11:48:25;;;;;;;;;;;2.70;99.90;;;1.85;74.02;93403.28;10388376;28;1930;-72
2021/12/10 11:53:27;;;;;;;;;;;2.80;99.90;;;2.02;73.12;93400.22;10391993;28;1953;-73
2021/12/10 11:58:30;;;;;;;;;;;2.90;99.90;;;2.25;72.15;93398.72;10395862;28;1989;-72
2021/12/10 12:03:33;;;;;;;;;;;3.00;99.90;;;2.13;72.80;93386.59;10390355;28;2000;-71
2021/12/10 12:08:36;;;;;;;;;;;3.10;99.90;;;2.05;73.61;93389.88;10384611;28;2335;-72
2021/12/10 12:13:43;;;;;;;;;;;3.00;99.90;;;1.87;73.77;93387.91;10391783;28;2258;-72
2021/12/10 12:18:46;;;;;;;;;;;3.00;99.90;;;2.02;74.00;93395.72;10391522;28;1925;-73
2021/12/10 12:29:11;;;;;;;;;;;3.00;99.90;;;1.72;73.99;93406.53;10401302;28;2294;-72
2021/12/10 12:34:17;;;;;;;;;;;2.80;99.90;;;1.98;74.96;93407.16;10387532;28;1968;-73
2021/12/10 12:39:20;;;;;;;;;;;2.90;99.90;;;2.55;75.42;93406.38;10390131;28;1916;-73
2021/12/10 12:44:23;;;;;;;;;;;3.10;99.90;;;2.91;71.54;93400.66;10399045;28;2078;-74
2021/12/10 12:49:46;;;;;;;;;;;3.60;99.90;;;3.30;68.12;93400.44;10407015;28;1977;-71
2021/12/10 12:54:50;;;;;;;;;;;;;;;3.50;69.43;93402.81;10397820;28;1974;-72
2021/12/10 12:59:53;;;;;;;;;;;4.30;99.90;;;3.68;71.08;93400.44;10400981;28;2438;-74
2021/12/10 13:04:56;;;;;;;;;;;3.80;99.90;;;3.38;69.42;93404.34;10397352;28;2071;-72
2021/12/10 13:10:03;;;;;;;;;;;4.20;99.90;;;3.32;68.82;93408.13;10401576;28;1978;-74
2021/12/10 13:15:06;;;;;;;;;;;4.10;99.90;;;3.27;68.76;93413.50;10398581;28;2064;-74
2021/12/10 13:20:09;;;;;;;;;;;4.10;99.90;;;3.34;72.63;93420.03;10401097;28;1974;-72
2021/12/10 13:25:12;;;;;;;;;;;4.00;99.90;;;2.94;70.21;93424.78;10414643;28;1953;-72
2021/12/10 13:30:15;;;;;;;;;;;4.00;99.90;;;2.72;71.14;93435.88;10409476;28;2009;-74
2021/12/10 13:35:18;;;;;;;;;;;3.70;99.90;;;2.35;73.64;93441.00;10407441;28;1858;-71
2021/12/10 13:40:21;;;;;;;;;;;3.30;99.90;;;2.29;74.14;93452.72;10402155;28;2466;-72
2021/12/10 13:45:24;;;;;;;;;;;3.20;99.90;;;2.22;73.70;93452.25;10405263;28;1884;-71
2021/12/10 13:50:27;;;;;;;;;;;3.20;99.90;;;2.00;74.54;93456.16;10420298;28;1914;-73
2021/12/10 13:55:30;;;;;;;;;;;3.10;99.90;;;1.93;74.26;93454.88;10406213;28;1980;-72
2021/12/10 14:00:33;;;;;;;;;;;3.00;99.90;;;1.84;75.21;93467.91;10409534;28;1842;-73
2021/12/10 14:05:36;;;;;;;;;;;2.90;99.90;;;2.03;77.63;93466.19;10405396;28;2135;-72
2021/12/10 14:10:40;;;;;;;;;;;3.00;99.90;;;2.06;77.06;93470.16;10418827;28;1910;-72
2021/12/10 14:15:47;;;;;;;;;;;2.90;99.90;;;2.04;76.52;93480.25;10407242;28;1763;-73
2021/12/10 14:21:10;;;;;;;;;;;3.00;99.90;;;1.89;78.97;93486.44;10413077;28;1865;-72
2021/12/10 14:26:33;;;;;;;;;;;2.90;99.90;;;2.00;77.06;93487.16;10410669;28;1901;-72
2021/12/10 14:31:56;;;;;;;;;;;2.90;99.90;;;1.98;75.42;93486.66;10403591;28;2152;-72
2021/12/10 14:36:59;;;;;;;;;;;2.90;99.90;;;1.98;76.62;93484.78;10403549;28;1829;-72
2021/12/10 14:42:06;;;;;;;;;;;2.90;99.90;;;2.07;77.01;93495.59;10401383;28;1874;-76
2021/12/10 14:47:13;;;;;;;;;;;3.00;99.90;;;1.95;73.86;93498.56;10402254;28;1910;-71
2021/12/10 14:52:35;;;;;;;;;;;2.90;99.90;;;1.80;75.55;93504.78;10404479;28;1897;-73
2021/12/10 14:57:59;;;;;;;;;;;2.80;99.90;;;1.78;71.75;93512.22;10404133;28;2168;-71
2021/12/10 15:03:23;;;;;;;;;;;2.80;99.90;;;1.68;74.18;93516.75;10406962;28;2992;-72
2021/12/10 15:08:49;;;;;;;;;;;2.70;99.90;;;1.60;74.51;93523.44;10407318;28;1910;-72
2021/12/10 15:14:11;;;;;;;;;;;2.70;99.90;;;1.57;76.06;93527.41;10394598;28;1992;-72
2021/12/10 15:19:25;;;;;;;;;;;2.60;99.90;;;1.60;78.03;93524.22;10401155;28;2215;-72
2021/12/10 15:24:33;;;;;;;;;;;2.70;99.90;;;1.45;86.49;93526.91;10390652;28;1944;-72
2021/12/10 15:29:37;;;;;;;;;;;2.50;99.90;;;1.31;92.37;93539.16;10393349;28;2382;-72
2021/12/10 15:34:39;;;;;;;;;;;2.40;99.90;;;1.13;98.92;93537.09;10394107;28;2207;-73
2021/12/10 15:39:43;;;;;;;;;;;2.30;99.90;;;0.98;100.00;93546.66;10401221;28;2021;-71
2021/12/10 15:44:47;;;;;;;;;;;2.10;99.90;;;0.76;100.00;93548.81;10404406;28;2035;-72
2021/12/10 15:49:51;;;;;;;;;;;2.00;99.90;;;0.67;100.00;93548.56;10404833;28;1942;-72
2021/12/10 15:54:54;;;;;;;;;;;1.80;99.90;;;0.56;100.00;93556.75;10401348;28;1971;-72
2021/12/10 15:59:59;;;;;;;;;;;1.70;99.90;;;0.45;100.00;93574.50;10405552;28;1852;-73
2021/12/10 16:05:02;;;;;;;;;;;1.60;99.90;;;0.45;100.00;93575.28;10396171;28;1941;-73
2021/12/10 16:10:08;;;;;;;;;;;1.60;99.90;;;0.44;100.00;93568.38;10412339;28;1925;-73
2021/12/10 16:15:11;;;;;;;;;;;1.50;99.90;;;0.37;100.00;93586.34;10415246;28;1980;-75
2021/12/10 16:20:15;;;;;;;;;;;1.50;99.90;;;0.34;100.00;93578.19;10416557;28;1980;-74
2021/12/10 16:25:20;;;;;;;;;;;1.40;99.90;;;0.30;100.00;93577.91;10409220;28;1915;-74
2021/12/10 16:30:23;;;;;;;;;;;1.40;99.90;;;0.29;100.00;93594.81;10415760;28;1914;-74
2021/12/10 16:35:27;;;;;;;;;;;1.40;99.90;;;0.27;100.00;93610.16;10410244;28;1874;-74
2021/12/10 16:40:30;;;;;;;;;;;1.40;99.90;;;0.26;100.00;93619.13;10408723;28;2120;-74
2021/12/10 16:45:33;;;;;;;;;;;1.30;99.90;;;0.23;100.00;93619.66;10409306;28;1935;-74
2021/12/10 16:50:36;;;;;;;;;;;1.30;99.90;;;0.19;100.00;93627.31;10406889;28;1981;-73
2021/12/10 16:55:41;;;;;;;;;;;1.20;99.90;;;0.20;100.00;93631.53;10415463;28;1848;-75
2021/12/10 17:00:44;;;;;;;;;;;1.30;99.90;;;0.18;100.00;93643.41;10406839;28;1910;-73
2021/12/10 17:05:47;;;;;;;;;;;1.30;99.90;;;0.17;100.00;93655.81;10399966;28;1886;-74
2021/12/10 17:10:50;;;;;;;;;;;1.20;99.90;;;0.21;100.00;93664.03;10404410;28;1941;-74
2021/12/10 17:15:53;;;;;;;;;;;1.20;99.90;;;0.26;100.00;93670.13;10401595;28;1833;-75
2021/12/10 17:20:56;;;;;;;;;;;1.30;99.90;;;0.25;100.00;93680.94;10401063;28;2001;-74
2021/12/10 17:26:00;;;;;;;;;;;1.30;99.90;;;0.27;100.00;93686.78;10406900;28;1831;-74
2021/12/10 17:31:02;;;;;;;;;;;1.30;99.90;;;0.23;100.00;93688.34;10398696;28;1996;-75
2021/12/10 17:36:07;;;;;;;;;;;1.30;99.90;;;0.30;100.00;93701.31;10397575;28;2238;-74
2021/12/10 17:41:10;;;;;;;;;;;1.30;99.90;;;0.30;100.00;93703.94;10404699;28;2005;-75
2021/12/10 17:46:13;;;;;;;;;;;1.30;99.90;;;0.35;100.00;93722.47;10412616;28;1948;-75
2021/12/10 17:51:18;;;;;;;;;;;1.30;99.90;;;0.38;100.00;93721.94;10407618;28;1977;-75
2021/12/10 17:56:21;;;;;;;;;;;1.40;99.90;;;0.39;100.00;93728.84;10410047;28;1803;-76
2021/12/10 18:01:24;;;;;;;;;;;1.50;99.90;;;0.37;100.00;93737.00;10404701;28;1846;-75
2021/12/10 18:06:27;;;;;;;;;;;1.40;99.90;;;0.39;100.00;93748.13;10410937;28;1830;-74
2021/12/10 18:11:30;;;;;;;;;;;1.40;99.90;;;0.41;100.00;93753.94;10410119;28;1969;-75
2021/12/10 18:16:33;;;;;;;;;;;1.40;99.90;;;0.36;100.00;93761.84;10408375;28;1819;-75
2021/12/10 18:21:36;;;;;;;;;;;1.40;99.90;;;0.36;100.00;93764.50;10405226;28;1953;-75
2021/12/10 18:26:39;;;;;;;;;;;1.30;99.90;;;0.38;100.00;93770.34;10402531;28;2012;-77
2021/12/10 18:31:42;;;;;;;;;;;1.30;99.90;;;0.42;100.00;93779.31;10400066;28;2329;-76
2021/12/10 18:36:45;;;;;;;;;;;1.40;99.90;;;0.51;100.00;93783.06;10406777;28;2092;-77
2021/12/10 18:41:48;;;;;;;;;;;1.50;99.90;;;0.58;100.00;93790.75;10405197;28;2482;-75
2021/12/10 18:47:10;;;;;;;;;;;1.50;99.90;;;0.62;100.00;93801.59;10405586;28;1881;-75
2021/12/10 18:52:14;;;;;;;;;;;1.60;99.90;;;0.60;100.00;93807.16;10411964;28;2008;-74
2021/12/10 18:57:16;;;;;;;;;;;1.60;99.90;;;0.55;100.00;93820.34;10402809;28;1870;-74
2021/12/10 19:02:19;;;;;;;;;;;1.60;99.90;;;0.61;100.00;93821.16;10411350;28;1884;-75
2021/12/10 19:07:23;;;;;;;;;;;1.60;99.90;;;0.66;100.00;93829.91;10411245;28;1908;-76
2021/12/10 19:12:26;;;;;;;;;;;1.60;99.90;;;0.75;100.00;93843.41;10407352;28;1980;-76
2021/12/10 19:17:29;;;;;;;;;;;1.70;99.90;;;0.78;100.00;93858.78;10408615;28;1953;-76
2021/12/10 19:22:32;;;;;;;;;;;1.80;99.90;;;0.86;100.00;93860.91;10406635;28;1751;-75
2021/12/10 19:27:35;;;;;;;;;;;1.80;99.90;;;0.87;100.00;93867.78;10409231;28;1906;-76
2021/12/10 19:32:37;;;;;;;;;;;1.90;99.90;;;0.88;100.00;93879.97;10401184;28;1989;-76
2021/12/10 19:37:40;;;;;;;;;;;1.90;99.90;;;0.89;100.00;93876.28;10405655;28;2072;-75
2021/12/10 19:42:44;;;;;;;;;;;1.80;99.90;;;0.96;100.00;93879.47;10409366;28;1913;-76
2021/12/10 19:47:47;;;;;;;;;;;1.90;99.90;;;1.00;100.00;93898.25;10413815;28;1870;-75
2021/12/10 19:52:50;;;;;;;;;;;2.00;99.90;;;1.01;100.00;93900.63;10406920;28;1910;-74
2021/12/10 19:57:52;;;;;;;;;;;2.00;99.90;;;1.06;100.00;93902.50;10404456;28;1855;-74
2021/12/10 20:02:56;;;;;;;;;;;2.10;99.90;;;1.07;100.00;93914.69;10400156;28;1845;-76
2021/12/10 20:07:59;;;;;;;;;;;2.00;99.90;;;1.13;100.00;93918.13;10402835;28;2226;-74
2021/12/10 20:13:04;;;;;;;;;;;2.10;99.90;;;1.20;100.00;93942.50;10392866;28;2011;-75
2021/12/10 20:18:07;;;;;;;;;;;2.10;99.90;;;1.24;100.00;93948.88;10403575;28;1897;-75
2021/12/10 20:23:13;;;;;;;;;;;2.20;99.90;;;1.27;100.00;93953.66;10403885;28;1870;-74
2021/12/10 20:28:15;;;;;;;;;;;2.20;99.90;;;1.33;100.00;93955.25;10398395;28;1933;-74
2021/12/10 20:33:18;;;;;;;;;;;2.30;99.90;;;1.37;100.00;93960.84;10406328;28;1986;-74
2021/12/10 20:38:21;;;;;;;;;;;2.30;99.90;;;1.39;100.00;93983.34;10402538;28;1885;-74
2021/12/10 20:43:25;;;;;;;;;;;2.40;99.90;;;1.38;100.00;93979.09;10401619;28;1846;-74
2021/12/10 20:48:28;;;;;;;;;;;2.40;99.90;;;1.39;100.00;93991.28;10405579;28;1881;-74
2021/12/10 20:53:33;;;;;;;;;;;2.40;99.90;;;1.44;100.00;93996.59;10399287;28;1883;-74
2021/12/10 20:58:47;;;;;;;;;;;2.40;99.90;;;1.48;100.00;93995.03;10406201;28;1816;-74
2021/12/10 21:03:52;;;;;;;;;;;2.50;99.90;;;1.47;100.00;94004.03;10412794;28;1987;-75
2021/12/10 21:08:55;;;;;;;;;;;2.40;99.90;;;1.49;100.00;94014.38;10412111;28;1948;-74
2021/12/10 21:13:58;;;;;;;;;;;2.50;99.90;;;1.46;100.00;94018.31;10412762;28;1845;-75
2021/12/10 21:19:01;;;;;;;;;;;2.50;99.90;;;1.44;100.00;94036.31;10410847;28;1962;-75
2021/12/10 21:24:05;;;;;;;;;;;2.50;99.90;;;1.48;100.00;94042.69;10409737;28;2059;-75
2021/12/10 21:29:07;;;;;;;;;;;2.50;99.90;;;1.49;100.00;94043.50;10401016;28;1922;-74
2021/12/10 21:34:11;;;;;;;;;;;2.50;99.90;;;1.47;100.00;94054.34;10397774;28;1897;-74
2021/12/10 21:39:26;;;;;;;;;;;2.50;99.90;;;1.52;100.00;94064.16;10411088;28;1846;-75
2021/12/10 21:44:29;;;;;;;;;;;2.60;99.90;;;1.46;100.00;94068.63;10402644;28;2267;-75
2021/12/10 21:49:32;;;;;;;;;;;2.60;99.90;;;1.52;100.00;94064.16;10418771;28;1941;-75
2021/12/10 21:54:35;;;;;;;;;;;2.60;99.90;;;1.57;100.00;94074.75;10406381;28;1879;-75
2021/12/10 21:59:37;;;;;;;;;;;2.60;99.90;;;1.54;100.00;94091.97;10406518;28;1897;-74
2021/12/10 22:04:41;;;;;;;;;;;2.60;99.90;;;1.59;100.00;94107.91;10399196;28;1424;-74
2021/12/10 22:09:44;;;;;;;;;;;2.60;99.90;;;1.60;100.00;94114.78;10399581;28;2207;-74
2021/12/10 22:14:47;;;;;;;;;;;2.50;99.90;;;1.60;100.00;94120.06;10402692;28;2363;-74
2021/12/10 22:19:54;;;;;;;;;;;2.60;99.90;;;1.60;100.00;94129.88;10405006;28;1887;-75
2021/12/10 22:24:57;;;;;;;;;;;2.70;99.90;;;1.63;100.00;94138.09;10425630;28;1750;-75
2021/12/10 22:30:00;;;;;;;;;;;2.60;99.90;;;1.66;100.00;94154.53;10426297;28;1958;-75
2021/12/10 22:35:08;;;;;;;;;;;2.70;99.90;;;1.65;100.00;94155.56;10417580;28;1803;-74
2021/12/10 22:40:18;;;;;;;;;;;2.70;99.90;;;1.63;100.00;94172.53;10432780;28;1891;-74
2021/12/10 22:45:21;;;;;;;;;;;2.70;99.90;;;1.68;100.00;94174.41;10435813;28;1917;-74
2021/12/10 22:50:24;;;;;;;;;;;2.70;99.90;;;1.67;100.00;94179.97;10423158;28;3415;-74
2021/12/10 22:55:26;;;;;;;;;;;2.60;99.90;;;1.69;100.00;94191.09;10414973;28;1851;-74
2021/12/10 23:00:30;;;;;;;;;;;2.70;99.90;;;1.63;100.00;94196.34;10428114;28;1823;-74
2021/12/10 23:05:35;;;;;;;;;;;2.70;99.90;;;1.59;100.00;94197.94;10412366;28;1829;-74
2021/12/10 23:10:38;;;;;;;;;;;2.70;99.90;;;1.51;100.00;94198.41;10402391;28;1922;-74
2021/12/10 23:15:41;;;;;;;;;;;2.60;99.90;;;1.42;100.00;94213.19;10408483;28;2147;-74
2021/12/10 23:20:44;;;;;;;;;;;2.50;99.90;;;1.44;100.00;94220.88;10402019;28;1817;-74
2021/12/10 23:25:47;;;;;;;;;;;2.50;99.90;;;1.35;100.00;94233.78;10405114;28;2014;-74
2021/12/10 23:30:56;;;;;;;;;;;2.40;99.90;;;1.41;100.00;94240.72;10402953;28;2376;-75
2021/12/10 23:35:59;;;;;;;;;;;2.50;99.90;;;1.43;100.00;94246.53;10408663;28;1802;-74
2021/12/10 23:41:02;;;;;;;;;;;2.50;99.90;;;1.52;100.00;94255.59;10400952;28;1865;-74
2021/12/10 23:46:07;;;;;;;;;;;2.60;99.90;;;1.59;100.00;94256.22;10391812;28;1817;-74
2021/12/10 23:51:09;;;;;;;;;;;2.60;99.90;;;1.60;100.00;94252.50;10399042;28;1914;-74
2021/12/10 23:56:30;;;;;;;;;;;2.70;99.90;;;1.64;100.00;94258.06;10397142;28;1919;-74
